Time;durP1;ratioP1;P1;durP2;ratioP2;P2;SDS_P1;SDS_P2;PMS_P1;PMS_P2;Temp;Humidity;BMP_temperature;BMP_pressure;BME280_temperature;BME280_humidity;BME280_pressure;Samples;Min_cycle;Max_cycle;Signal;HPM_P1;HPM_P2
2022/08/19 00:00:29;;;;;;;13.52;12.13;;;;;;;19.14;100.00;95719.03;5087516;28;20032;-73
2022/08/19 00:02:55;;;;;;;14.18;12.13;;;;;;;19.36;100.00;95712.16;5088196;28;20050;-73
2022/08/19 00:05:21;;;;;;;14.40;12.90;;;;;;;19.27;100.00;95708.19;5090363;28;20113;-73
2022/08/19 00:07:48;;;;;;;14.25;12.82;;;;;;;19.22;100.00;95714.19;5087895;28;20542;-73
2022/08/19 00:10:15;;;;;;;14.05;12.55;;;;;;;19.35;100.00;95720.38;5084394;28;20063;-73
2022/08/19 00:12:41;;;;;;;13.68;12.20;;;;;;;19.30;100.00;95716.53;5087612;28;20489;-73
2022/08/19 00:15:11;;;;;;;14.00;12.38;;;;;;;19.35;100.00;95725.69;5083483;28;20089;-73
2022/08/19 00:17:42;;;;;;;14.90;13.32;;;;;;;19.20;100.00;95720.78;5087576;28;20036;-73
2022/08/19 00:20:12;;;;;;;15.43;13.73;;;;;;;19.25;100.00;95724.41;5084430;28;20046;-73
2022/08/19 00:22:40;;;;;;;17.42;13.27;;;;;;;19.22;100.00;95738.19;5086483;28;20036;-73
2022/08/19 00:25:07;;;;;;;19.95;15.88;;;;;;;19.08;100.00;95726.88;5084829;28;20036;-73
2022/08/19 00:27:33;;;;;;;15.70;14.10;;;;;;;19.12;100.00;95729.91;5086315;28;20028;-73
2022/08/19 00:29:59;;;;;;;16.92;15.23;;;;;;;19.05;100.00;95727.34;5089639;28;20158;-73
2022/08/19 00:32:25;;;;;;;17.85;16.13;;;;;;;19.12;100.00;95731.78;5089412;28;20036;-73
2022/08/19 00:34:52;;;;;;;16.83;15.07;;;;;;;19.25;100.00;95731.59;5088765;28;20038;-73
2022/08/19 00:37:22;;;;;;;17.50;15.70;;;;;;;19.05;100.00;95722.00;5089730;28;20071;-73
2022/08/19 00:39:48;;;;;;;17.42;14.57;;;;;;;19.07;100.00;95713.78;5086429;28;20028;-73
2022/08/19 00:42:15;;;;;;;17.30;15.50;;;;;;;18.96;100.00;95706.56;5086546;28;20036;-73
2022/08/19 00:44:41;;;;;;;17.38;15.68;;;;;;;18.96;100.00;95707.34;5085144;28;20037;-73
2022/08/19 00:47:06;;;;;;;18.50;16.65;;;;;;;18.98;100.00;95699.97;5087976;28;20024;-73
2022/08/19 00:49:37;;;;;;;18.20;16.30;;;;;;;18.89;100.00;95701.31;5086074;28;20477;-73
2022/08/19 00:52:08;;;;;;;19.90;17.80;;;;;;;18.87;100.00;95698.03;5087885;28;20036;-73
2022/08/19 00:54:36;;;;;;;18.98;17.08;;;;;;;18.81;100.00;95701.59;5082525;28;20027;-73
2022/08/19 00:57:06;;;;;;;19.48;17.42;;;;;;;18.76;100.00;95701.47;5087495;28;20442;-73
2022/08/19 00:59:38;;;;;;;19.52;17.38;;;;;;;18.75;100.00;95711.31;5075295;28;20834;-73
2022/08/19 01:02:04;;;;;;;19.80;17.75;;;;;;;18.76;100.00;95715.59;5082540;28;20032;-73
2022/08/19 01:04:30;;;;;;;21.30;18.45;;;;;;;18.75;100.00;95723.81;5087933;28;20131;-73
2022/08/19 01:06:57;;;;;;;20.58;18.25;;;;;;;18.80;100.00;95723.94;5078640;28;20107;-73
2022/08/19 01:09:23;;;;;;;19.65;17.70;;;;;;;18.72;100.00;95726.94;5086498;28;20028;-73
2022/08/19 01:11:49;;;;;;;20.23;18.02;;;;;;;18.77;100.00;95729.72;5082355;28;20039;-73
2022/08/19 01:14:16;;;;;;;19.55;17.65;;;;;;;18.79;100.00;95736.47;5083542;28;20524;-73
2022/08/19 01:16:43;;;;;;;20.13;18.10;;;;;;;18.82;100.00;95729.88;5082128;28;20032;-73
2022/08/19 01:19:26;;;;;;;20.90;18.77;;;;;;;18.75;100.00;95726.47;5087414;28;20163;-74
2022/08/19 01:22:08;;;;;;;19.60;17.60;;;;;;;18.75;100.00;95716.63;5087973;28;20040;-73
2022/08/19 01:24:34;;;;;;;20.02;17.92;;;;;;;18.75;100.00;95711.31;5086834;28;20103;-73
2022/08/19 01:27:04;;;;;;;22.23;19.42;;;;;;;18.69;100.00;95716.69;5081698;28;20090;-73
2022/08/19 01:29:30;;;;;;;20.02;17.92;;;;;;;18.62;100.00;95722.09;5087303;28;20032;-73
2022/08/19 01:31:56;;;;;;;20.73;18.60;;;;;;;18.69;100.00;95719.34;5087599;28;20020;-73
2022/08/19 01:34:22;;;;;;;19.38;17.27;;;;;;;18.66;100.00;95723.25;5082248;28;20111;-73
2022/08/19 01:36:48;;;;;;;21.73;18.98;;;;;;;18.70;100.00;95728.97;5086647;28;20040;-73
2022/08/19 01:39:19;;;;;;;22.00;19.73;;;;;;;18.61;100.00;95725.75;5085406;28;20039;-73
2022/08/19 01:41:46;;;;;;;22.48;20.10;;;;;;;18.52;100.00;95727.94;5074566;28;20119;-73
2022/08/19 01:44:12;;;;;;;23.60;20.48;;;;;;;18.52;100.00;95729.78;5083025;28;20040;-73
2022/08/19 01:46:38;;;;;;;19.88;17.77;;;;;;;18.52;100.00;95727.94;5085425;28;20028;-73
2022/08/19 01:49:05;;;;;;;21.80;19.48;;;;;;;18.55;100.00;95724.81;5085872;28;20044;-73
2022/08/19 01:51:30;;;;;;;21.30;19.10;;;;;;;18.50;100.00;95723.84;5083537;28;20039;-72
2022/08/19 01:53:57;;;;;;;23.63;19.88;;;;;;;18.51;100.00;95720.13;5086963;28;20031;-73
2022/08/19 01:56:23;;;;;;;22.13;19.85;;;;;;;18.48;100.00;95716.09;5086400;28;20811;-74
2022/08/19 01:58:52;;;;;;;23.35;20.83;;;;;;;18.48;100.00;95708.09;5087420;28;20058;-73
2022/08/19 02:01:18;;;;;;;23.73;20.23;;;;;;;18.44;100.00;95711.41;5087945;28;20032;-73
2022/08/19 02:03:45;;;;;;;22.83;20.17;;;;;;;18.50;100.00;95710.53;5086407;28;20530;-73
2022/08/19 02:06:12;;;;;;;22.92;20.55;;;;;;;18.46;100.00;95707.50;5081466;28;20035;-73
2022/08/19 02:08:38;;;;;;;28.08;21.27;;;;;;;18.52;100.00;95722.59;5080435;28;20074;-73
2022/08/19 02:11:05;;;;;;;23.23;20.83;;;;;;;18.50;100.00;95724.66;5079665;28;20040;-73
2022/08/19 02:13:33;;;;;;;23.02;20.52;;;;;;;18.47;100.00;95729.63;5083482;28;20040;-73
2022/08/19 02:15:59;;;;;;;24.00;20.98;;;;;;;18.47;100.00;95730.41;5088886;28;20032;-74
2022/08/19 02:18:26;;;;;;;23.15;20.73;;;;;;;18.47;100.00;95734.94;5080834;28;20036;-73
2022/08/19 02:20:52;;;;;;;23.08;20.60;;;;;;;18.48;100.00;95726.75;5088713;28;20028;-73
2022/08/19 02:23:18;;;;;;;23.25;20.08;;;;;;;18.46;100.00;95741.31;5085455;28;20028;-73
2022/08/19 02:25:46;;;;;;;23.10;20.70;;;;;;;18.44;100.00;95749.50;5080606;28;20489;-73
2022/08/19 02:28:12;;;;;;;20.80;18.70;;;;;;;18.41;100.00;95757.94;5079497;28;20397;-73
2022/08/19 02:30:40;;;;;;;20.13;18.10;;;;;;;18.36;100.00;95766.56;5088296;28;20111;-73
2022/08/19 02:33:06;;;;;;;26.63;20.08;;;;;;;18.23;100.00;95761.38;5089444;28;20032;-73
2022/08/19 02:35:31;;;;;;;21.38;19.25;;;;;;;18.25;100.00;95763.84;5088156;28;20025;-73
2022/08/19 02:40:50;;;;;;;21.10;19.00;;;;;;;18.20;100.00;95756.47;5083129;28;20126;-73
2022/08/19 02:43:16;;;;;;;21.70;19.38;;;;;;;18.33;100.00;95748.38;5085466;28;20035;-73
2022/08/19 02:45:41;;;;;;;21.02;18.85;;;;;;;18.32;100.00;95760.06;5087798;28;20452;-73
2022/08/19 02:48:08;;;;;;;20.88;18.70;;;;;;;18.43;100.00;95755.88;5083918;28;20447;-73
2022/08/19 02:50:40;;;;;;;21.50;19.30;;;;;;;18.45;100.00;95747.69;5083604;28;20025;-73
2022/08/19 02:53:06;;;;;;;20.55;18.48;;;;;;;18.42;100.00;95748.91;5062742;28;20104;-73
2022/08/19 02:55:32;;;;;;;20.10;18.13;;;;;;;18.43;100.00;95749.72;5086916;28;20034;-72
2022/08/19 02:57:59;;;;;;;19.55;17.65;;;;;;;18.39;100.00;95746.69;5088949;28;20509;-73
2022/08/19 03:00:26;;;;;;;21.20;19.10;;;;;;;18.34;100.00;95749.19;5085869;28;20042;-73
2022/08/19 03:02:52;;;;;;;20.40;18.30;;;;;;;18.38;100.00;95753.88;5082885;28;20101;-73
2022/08/19 03:05:18;;;;;;;19.17;16.75;;;;;;;18.41;100.00;95751.78;5077369;28;20067;-73
2022/08/19 03:07:45;;;;;;;18.88;16.90;;;;;;;18.45;100.00;95751.16;5086557;28;20846;-73
2022/08/19 03:10:10;;;;;;;20.05;18.05;;;;;;;18.43;100.00;95750.53;5083496;28;20390;-73
2022/08/19 03:12:39;;;;;;;19.67;17.67;;;;;;;18.43;100.00;95750.53;5076464;28;20039;-73
2022/08/19 03:15:07;;;;;;;19.45;17.38;;;;;;;18.42;100.00;95754.25;5083071;28;20066;-72
2022/08/19 03:17:34;;;;;;;19.40;17.45;;;;;;;18.43;100.00;95750.53;5081445;28;20031;-73
2022/08/19 03:20:00;;;;;;;19.23;17.35;;;;;;;18.38;100.00;95737.91;5082304;28;20569;-73
2022/08/19 03:22:26;;;;;;;19.83;17.77;;;;;;;18.26;100.00;95729.00;5075709;28;20040;-73
2022/08/19 03:24:53;;;;;;;20.60;18.13;;;;;;;18.40;100.00;95727.00;5084868;28;20566;-73
2022/08/19 03:27:19;;;;;;;20.38;18.35;;;;;;;18.28;100.00;95724.28;5080156;28;20131;-74
2022/08/19 03:29:45;;;;;;;22.17;19.38;;;;;;;18.24;100.00;95724.91;5084847;28;20032;-73
2022/08/19 03:32:13;;;;;;;19.35;17.45;;;;;;;18.19;100.00;95732.75;5086853;28;20047;-73
2022/08/19 03:34:39;;;;;;;21.05;18.95;;;;;;;18.31;100.00;95733.69;5084456;28;20162;-74
2022/08/19 03:37:12;;;;;;;21.73;19.63;;;;;;;18.25;100.00;95734.56;5082783;28;20404;-73
2022/08/19 03:39:39;;;;;;;21.50;19.17;;;;;;;18.04;100.00;95741.06;5082653;28;20042;-72
2022/08/19 03:42:05;;;;;;;21.25;19.15;;;;;;;18.00;100.00;95739.88;5083114;28;20040;-73
2022/08/19 03:44:32;;;;;;;20.77;18.58;;;;;;;18.17;100.00;95735.63;5080216;28;20150;-73
2022/08/19 03:46:59;;;;;;;21.25;18.98;;;;;;;18.00;100.00;95740.69;5088930;28;20032;-73
2022/08/19 03:49:29;;;;;;;20.50;18.40;;;;;;;18.02;100.00;95733.31;5086506;28;20036;-73
2022/08/19 03:51:57;;;;;;;21.48;19.10;;;;;;;18.11;100.00;95734.69;5087716;28;20086;-73
2022/08/19 03:54:24;;;;;;;21.30;19.10;;;;;;;18.16;100.00;95743.84;5084130;28;20119;-73
2022/08/19 03:56:53;;;;;;;22.92;20.38;;;;;;;18.05;100.00;95748.84;5088881;28;20024;-73
2022/08/19 03:59:25;;;;;;;21.27;19.08;;;;;;;18.14;100.00;95752.03;5087885;28;20154;-73
2022/08/19 04:02:01;;;;;;;22.83;20.42;;;;;;;18.14;100.00;95742.22;5089417;28;20036;-73
2022/08/19 04:04:29;;;;;;;21.23;19.08;;;;;;;18.18;100.00;95747.13;5088850;28;20514;-73
2022/08/19 04:06:55;;;;;;;20.52;18.40;;;;;;;18.10;100.00;95750.84;5085453;28;20608;-73
2022/08/19 04:09:21;;;;;;;22.63;20.23;;;;;;;18.18;100.00;95749.78;5082025;28;20123;-73
2022/08/19 04:11:50;;;;;;;21.50;19.30;;;;;;;18.21;100.00;95744.00;5086923;28;20040;-73
2022/08/19 04:14:19;;;;;;;30.20;25.08;;;;;;;18.08;100.00;95736.97;5079969;28;20040;-73
2022/08/19 04:16:46;;;;;;;25.80;23.10;;;;;;;18.15;100.00;95737.72;5082767;28;20754;-73
2022/08/19 04:19:13;;;;;;;26.48;23.67;;;;;;;18.19;100.00;95735.44;5088470;28;20032;-72
2022/08/19 04:21:39;;;;;;;25.15;22.42;;;;;;;18.07;100.00;95741.44;5088837;28;20032;-73
2022/08/19 04:24:06;;;;;;;25.30;22.58;;;;;;;18.00;100.00;95731.91;5073617;28;20037;-73
2022/08/19 04:26:34;;;;;;;25.42;22.70;;;;;;;17.97;100.00;95727.81;5085880;28;20165;-73
2022/08/19 04:29:03;;;;;;;23.52;21.02;;;;;;;18.01;100.00;95742.34;5088103;28;20054;-73
2022/08/19 04:31:31;;;;;;;22.63;20.23;;;;;;;18.09;100.00;95733.25;5088040;28;20089;-72
2022/08/19 04:33:59;;;;;;;22.30;19.70;;;;;;;18.06;100.00;95737.16;5089679;28;20032;-72
2022/08/19 04:36:31;;;;;;;22.98;20.45;;;;;;;18.09;100.00;95741.25;5087248;28;20062;-71
2022/08/19 04:39:01;;;;;;;23.77;20.80;;;;;;;18.09;100.00;95734.06;5089283;28;20412;-71
2022/08/19 04:44:12;;;;;;;23.75;21.25;;;;;;;18.17;100.00;95732.16;5088597;28;20039;-73
2022/08/19 04:46:39;;;;;;;27.92;25.02;;;;;;;18.19;100.00;95738.09;5082777;28;20036;-73
2022/08/19 04:49:06;;;;;;;29.08;25.98;;;;;;;18.10;100.00;95745.53;5087837;28;20222;-73
2022/08/19 04:51:33;;;;;;;27.00;23.77;;;;;;;18.10;100.00;95737.53;5084286;28;20027;-73
2022/08/19 04:54:01;;;;;;;25.52;22.10;;;;;;;18.28;100.00;95747.44;5083561;28;20495;-72
2022/08/19 04:56:27;;;;;;;24.20;21.77;;;;;;;18.42;100.00;95754.25;5087230;28;20497;-72
2022/08/19 04:58:54;;;;;;;27.92;24.98;;;;;;;18.35;100.00;95750.84;5088001;28;20060;-72
2022/08/19 05:01:24;;;;;;;30.55;27.35;;;;;;;18.38;100.00;95756.53;5085626;28;20776;-72
2022/08/19 05:03:50;;;;;;;28.00;25.10;;;;;;;18.35;100.00;95754.31;5087931;28;20493;-73
2022/08/19 05:06:19;;;;;;;25.45;22.58;;;;;;;18.32;100.00;95770.72;5090808;28;20032;-74
2022/08/19 05:08:45;;;;;;;25.50;21.40;;;;;;;18.40;100.00;95782.94;5079912;28;20032;-73
2022/08/19 05:11:15;;;;;;;25.55;21.60;;;;;;;18.35;100.00;95778.28;5080562;28;20492;-74
2022/08/19 05:13:42;;;;;;;25.35;21.90;;;;;;;18.43;100.00;95787.81;5082970;28;20173;-74
2022/08/19 05:16:10;;;;;;;25.10;21.90;;;;;;;18.33;100.00;95787.50;5058515;28;20031;-73
2022/08/19 05:24:09;;;;;;;24.05;20.88;;;;;;;18.31;100.00;95809.03;5078285;28;20044;-73
2022/08/19 05:26:40;;;;;;;25.35;21.52;;;;;;;18.40;100.00;95809.53;5078829;28;20036;-73
2022/08/19 05:29:07;;;;;;;30.75;27.38;;;;;;;18.46;100.00;95814.00;5081472;28;20109;-73
2022/08/19 05:31:34;;;;;;;27.83;24.88;;;;;;;18.49;100.00;95808.25;5084276;28;20233;-73
2022/08/19 05:33:59;;;;;;;27.73;21.33;;;;;;;18.45;100.00;95814.25;5086285;28;20032;-74
2022/08/19 05:36:27;;;;;;;23.02;20.63;;;;;;;18.50;100.00;95809.06;5084913;28;20043;-73
2022/08/19 05:38:53;;;;;;;25.42;22.75;;;;;;;18.57;100.00;95815.13;5080392;28;20462;-73
2022/08/19 05:41:20;;;;;;;24.00;21.40;;;;;;;18.59;100.00;95824.53;5064876;28;20483;-73
2022/08/19 05:43:46;;;;;;;25.02;21.30;;;;;;;18.61;100.00;95819.81;5085178;28;20040;-73
2022/08/19 05:46:22;;;;;;;24.52;22.00;;;;;;;18.52;100.00;95822.97;5086054;28;20043;-73
2022/08/19 05:48:48;;;;;;;25.42;21.67;;;;;;;18.48;100.00;95819.13;5087130;28;20090;-73
2022/08/19 05:51:14;;;;;;;24.17;20.48;;;;;;;18.46;100.00;95826.50;5088867;28;20028;-73
2022/08/19 05:53:40;;;;;;;23.42;21.02;;;;;;;18.43;100.00;95833.06;5086616;28;20039;-71
2022/08/19 05:56:11;;;;;;;23.80;21.33;;;;;;;18.29;100.00;95835.03;5086842;28;20082;-73
2022/08/19 05:58:37;;;;;;;25.40;22.15;;;;;;;18.42;100.00;95834.13;5080235;28;20516;-73
2022/08/19 06:01:09;;;;;;;33.90;30.33;;;;;;;18.61;100.00;95830.47;5076853;28;20631;-73
2022/08/19 06:03:37;;;;;;;34.58;27.88;;;;;;;18.49;100.00;95826.88;5086553;28;20042;-73
2022/08/19 06:06:03;;;;;;;26.23;23.48;;;;;;;18.35;100.00;95825.38;5078833;28;20032;-73
2022/08/19 06:08:30;;;;;;;25.73;22.75;;;;;;;18.46;100.00;95832.66;5078438;28;20035;-73
2022/08/19 06:10:55;;;;;;;24.25;21.65;;;;;;;18.38;100.00;95827.59;5086272;28;20048;-73
2022/08/19 06:13:22;;;;;;;25.75;22.38;;;;;;;18.48;100.00;95827.94;5085039;28;20023;-73
2022/08/19 06:15:48;;;;;;;23.58;21.10;;;;;;;18.49;100.00;95820.75;5085110;28;20115;-73
2022/08/19 06:18:15;;;;;;;24.50;21.90;;;;;;;18.42;100.00;95826.13;5080046;28;20077;-73
2022/08/19 06:20:42;;;;;;;24.92;21.42;;;;;;;18.48;100.00;95825.25;5082507;28;20032;-72
2022/08/19 06:23:08;;;;;;;25.38;22.27;;;;;;;18.44;100.00;95824.03;5077198;28;20393;-72
2022/08/19 06:25:35;;;;;;;23.63;20.92;;;;;;;18.45;100.00;95817.72;5082924;28;20040;-72
2022/08/19 06:28:01;;;;;;;26.05;23.08;;;;;;;18.35;100.00;95822.72;5080914;28;20085;-73
2022/08/19 06:30:27;;;;;;;25.13;22.42;;;;;;;18.40;100.00;95819.38;5085684;28;20020;-74
2022/08/19 06:32:53;;;;;;;26.25;22.27;;;;;;;18.37;100.00;95823.28;5084735;28;20621;-72
2022/08/19 06:35:19;;;;;;;25.73;22.92;;;;;;;18.33;100.00;95819.44;5077544;28;20035;-72
2022/08/19 06:37:45;;;;;;;27.60;22.85;;;;;;;18.47;100.00;95815.63;5078699;28;20055;-72
2022/08/19 06:40:12;;;;;;;25.83;23.13;;;;;;;18.57;100.00;95809.81;5082466;28;20035;-72
2022/08/19 06:42:38;;;;;;;27.42;23.50;;;;;;;18.39;100.00;95821.25;5074546;28;20033;-72
2022/08/19 06:45:05;;;;;;;26.15;22.75;;;;;;;18.50;100.00;95823.19;5075015;28;20043;-72
2022/08/19 06:47:32;;;;;;;25.55;22.13;;;;;;;18.48;100.00;95833.25;5082415;28;20052;-73
2022/08/19 06:50:04;;;;;;;25.55;22.85;;;;;;;18.37;100.00;95829.44;5085699;28;20031;-73
2022/08/19 06:52:32;;;;;;;28.85;23.90;;;;;;;18.32;100.00;95836.47;5078342;28;20040;-72
2022/08/19 06:54:59;;;;;;;32.42;27.20;;;;;;;18.40;100.00;95836.16;5084202;28;20031;-72
2022/08/19 06:57:25;;;;;;;29.33;25.15;;;;;;;18.36;100.00;95837.66;5081327;28;20485;-72
2022/08/19 06:59:51;;;;;;;28.08;24.92;;;;;;;18.39;100.00;95842.53;5079515;28;20044;-73
2022/08/19 07:02:18;;;;;;;26.98;22.92;;;;;;;18.45;100.00;95833.69;5085594;28;20028;-73
2022/08/19 07:04:44;;;;;;;30.02;24.23;;;;;;;18.32;100.00;95847.09;5082301;28;20039;-72
2022/08/19 07:07:12;;;;;;;27.45;23.02;;;;;;;18.45;100.00;95844.34;5084438;28;20036;-72
2022/08/19 07:09:41;;;;;;;25.42;21.88;;;;;;;18.44;100.00;95836.56;5088706;28;20035;-73
2022/08/19 07:12:10;;;;;;;23.67;20.95;;;;;;;18.51;100.00;95831.97;5086947;28;20039;-73
2022/08/19 07:14:37;;;;;;;26.90;23.05;;;;;;;18.26;100.00;95839.97;5084539;28;20046;-72
2022/08/19 07:17:06;;;;;;;26.38;21.98;;;;;;;18.40;100.00;95838.84;5087749;28;20036;-73
2022/08/19 07:19:32;;;;;;;26.38;22.33;;;;;;;18.34;100.00;95842.34;5089557;28;20477;-72
2022/08/19 07:22:00;;;;;;;25.83;23.13;;;;;;;18.22;100.00;95839.59;5078732;28;20398;-72
2022/08/19 07:24:27;;;;;;;29.20;22.38;;;;;;;18.35;100.00;95844.81;5089054;28;20041;-73
2022/08/19 07:27:00;;;;;;;26.80;23.23;;;;;;;18.41;100.00;95837.81;5088341;28;20757;-73
2022/08/19 07:29:27;;;;;;;29.65;23.90;;;;;;;18.51;100.00;95835.47;5089459;28;20054;-73
2022/08/19 07:31:58;;;;;;;24.55;21.85;;;;;;;18.51;100.00;95835.47;5087790;28;20043;-73
2022/08/19 07:34:25;;;;;;;25.23;22.50;;;;;;;18.72;100.00;95838.81;5081583;28;20035;-72
2022/08/19 07:36:55;;;;;;;24.90;22.30;;;;;;;18.60;100.00;95842.13;5089117;28;20028;-73
2022/08/19 07:39:27;;;;;;;27.42;24.00;;;;;;;18.53;100.00;95852.03;5081468;28;20050;-72
2022/08/19 07:41:55;;;;;;;25.48;22.08;;;;;;;18.52;100.00;95857.59;5085047;28;20030;-72
2022/08/19 07:44:21;;;;;;;25.27;22.52;;;;;;;18.67;100.00;95862.56;5088135;28;20409;-72
2022/08/19 07:46:52;;;;;;;23.65;21.15;;;;;;;18.61;100.00;95854.44;5085947;28;20028;-73
2022/08/19 07:49:19;;;;;;;28.90;25.90;;;;;;;18.67;100.00;95854.56;5088028;28;20037;-73
2022/08/19 07:51:55;;;;;;;26.00;23.00;;;;;;;18.70;100.00;95857.63;5089129;28;20079;-73
2022/08/19 07:54:22;;;;;;;27.23;23.73;;;;;;;18.76;100.00;95861.28;5082532;28;20032;-72
2022/08/19 07:56:50;;;;;;;25.27;22.30;;;;;;;18.70;100.00;95862.94;5088645;28;20428;-73
2022/08/19 07:59:17;;;;;;;25.33;22.70;;;;;;;18.58;100.00;95860.19;5082901;28;20032;-73
2022/08/19 08:01:44;;;;;;;24.10;21.52;;;;;;;18.74;100.00;95866.00;5088936;28;20032;-73
2022/08/19 08:09:41;;;;;;;26.95;21.98;;;;;;;19.05;100.00;95857.94;5084307;28;20101;-73
2022/08/19 08:12:26;;;;;;;28.10;22.60;;;;;;;19.01;100.00;95858.56;5088956;28;20035;-73
2022/08/19 08:14:57;;;;;;;33.08;29.17;;;;;;;18.99;100.00;95860.66;5087705;28;20494;-73
2022/08/19 08:17:25;;;;;;;27.13;24.25;;;;;;;19.27;100.00;95860.94;5085850;28;20032;-73
2022/08/19 08:19:51;;;;;;;25.92;22.13;;;;;;;19.18;100.00;95856.13;5087681;28;20043;-72
2022/08/19 08:25:08;;;;;;;28.73;23.17;;;;;;;19.10;100.00;95861.78;5088069;28;20066;-73
2022/08/19 08:27:39;;;;;;;24.50;21.67;;;;;;;19.19;100.00;95857.78;5079276;28;20050;-73
2022/08/19 08:30:10;;;;;;;24.67;21.80;;;;;;;19.17;100.00;95862.50;5088122;28;20699;-72
2022/08/19 08:32:36;;;;;;;24.13;21.50;;;;;;;19.30;100.00;95862.34;5080348;28;20036;-72
2022/08/19 08:35:05;;;;;;;25.63;22.85;;;;;;;19.47;100.00;95857.25;5087717;28;20106;-72
2022/08/19 08:37:30;;;;;;;27.00;23.00;;;;;;;19.33;100.00;95861.91;5084534;28;20379;-72
2022/08/19 08:39:56;;;;;;;26.85;22.48;;;;;;;19.42;100.00;95855.25;5082021;28;20066;-72
2022/08/19 08:42:33;;;;;;;28.10;22.60;;;;;;;19.55;100.00;95855.09;5083833;28;20024;-72
2022/08/19 08:45:16;;;;;;;24.15;21.42;;;;;;;19.31;100.00;95855.97;5088661;28;20086;-73
2022/08/19 08:47:47;;;;;;;27.17;21.17;;;;;;;19.50;100.00;95846.94;5076306;28;20036;-72
2022/08/19 08:50:24;;;;;;;27.48;22.10;;;;;;;19.68;100.00;95853.28;5079480;28;20031;-72
2022/08/19 08:52:54;;;;;;;26.08;22.58;;;;;;;19.83;100.00;95851.06;5082523;28;20035;-73
2022/08/19 08:55:27;;;;;;;24.77;21.52;;;;;;;19.90;100.00;95856.28;5083509;28;20494;-73
2022/08/19 08:58:00;;;;;;;26.30;21.13;;;;;;;20.01;100.00;95853.66;5087546;28;20031;-73
2022/08/19 09:00:31;;;;;;;23.77;21.15;;;;;;;19.92;100.00;95855.03;5086927;28;20032;-73
2022/08/19 09:03:00;;;;;;;25.67;22.00;;;;;;;19.92;100.00;95851.53;5086382;28;20480;-72
2022/08/19 09:05:49;;;;;;;24.23;21.63;;;;;;;19.97;100.00;95852.47;5080859;28;20031;-73
2022/08/19 09:08:36;;;;;;;26.33;21.60;;;;;;;19.87;100.00;95862.09;5075048;28;20041;-73
2022/08/19 09:11:07;;;;;;;22.90;19.38;;;;;;;19.96;100.00;95866.88;5087357;28;20035;-73
2022/08/19 09:13:51;;;;;;;23.70;20.15;;;;;;;19.88;100.00;95864.50;5086263;28;20032;-72
2022/08/19 09:16:20;;;;;;;23.85;20.65;;;;;;;19.83;100.00;95861.72;5087295;28;20035;-72
2022/08/19 09:18:53;;;;;;;25.70;20.48;;;;;;;19.88;100.00;95864.50;5087849;28;20034;-73
2022/08/19 09:21:22;;;;;;;24.55;19.25;;;;;;;19.97;100.00;95865.81;5085397;28;20028;-73
2022/08/19 09:23:49;;;;;;;24.88;19.83;;;;;;;19.73;100.00;95867.59;5079542;28;20032;-73
2022/08/19 09:26:18;;;;;;;24.65;20.95;;;;;;;19.51;100.00;95869.88;5074367;28;20032;-73
2022/08/19 09:28:46;;;;;;;23.60;20.55;;;;;;;19.58;100.00;95869.00;5084674;28;20036;-73
2022/08/19 09:31:15;;;;;;;26.02;21.45;;;;;;;19.63;100.00;95877.16;5083649;28;20071;-73
2022/08/19 09:33:43;;;;;;;23.88;21.23;;;;;;;19.39;100.00;95871.69;5080470;28;20026;-72
2022/08/19 09:36:12;;;;;;;26.95;22.48;;;;;;;19.22;100.00;95868.00;5085266;28;20036;-73
2022/08/19 09:38:40;;;;;;;25.85;22.45;;;;;;;19.36;100.00;95877.47;5079534;28;20107;-73
2022/08/19 09:41:13;;;;;;;26.67;21.83;;;;;;;19.25;100.00;95875.56;5087489;28;20036;-73
2022/08/19 09:43:39;;;;;;;;;;;;;;;19.28;100.00;95867.09;5077058;28;20047;-72
2022/08/19 09:46:06;;;;;;;26.25;22.08;;;;;;;19.28;100.00;95870.59;5084197;28;19919;-73
2022/08/19 09:48:36;;;;;;;28.02;21.38;;;;;;;19.52;100.00;95866.19;5085707;28;20028;-72
2022/08/19 09:51:04;;;;;;;27.60;21.55;;;;;;;19.51;100.00;95866.41;5082917;28;20556;-73
2022/08/19 09:53:30;;;;;;;24.73;21.17;;;;;;;19.45;100.00;95865.47;5078535;28;20481;-72
2022/08/19 09:55:55;;;;;;;24.98;20.63;;;;;;;19.41;100.00;95853.59;5077511;28;20039;-73
2022/08/19 09:58:24;;;;;;;27.95;21.60;;;;;;;19.14;100.00;95858.44;5086697;28;20512;-73
2022/08/19 10:00:49;;;;;;;23.85;20.70;;;;;;;19.37;100.00;95865.75;5085742;28;20123;-73
2022/08/19 10:03:15;;;;;;;23.65;20.70;;;;;;;19.26;100.00;95866.50;5077348;28;20039;-73
2022/08/19 10:05:50;;;;;;;28.00;24.70;;;;;;;19.25;100.00;95876.38;5079043;28;20059;-73
2022/08/19 10:08:18;;;;;;;28.45;24.08;;;;;;;19.25;100.00;95864.91;5087376;28;20035;-73
2022/08/19 10:10:45;;;;;;;24.80;21.73;;;;;;;19.34;100.00;95868.88;5078471;28;20032;-73
2022/08/19 10:13:12;;;;;;;24.33;21.42;;;;;;;19.10;100.00;95867.09;5081187;28;20964;-73
2022/08/19 10:15:40;;;;;;;25.55;21.88;;;;;;;19.20;100.00;95872.72;5077301;28;20034;-73
2022/08/19 10:18:07;;;;;;;26.67;21.98;;;;;;;19.25;100.00;95873.69;5087278;28;20051;-72
2022/08/19 10:20:32;;;;;;;26.73;22.63;;;;;;;19.28;100.00;95878.59;5084246;28;20032;-73
2022/08/19 10:22:59;;;;;;;25.23;22.13;;;;;;;19.26;100.00;95877.19;5087134;28;20024;-73
2022/08/19 10:25:26;;;;;;;25.25;22.33;;;;;;;19.20;100.00;95884.19;5084812;28;20439;-73
2022/08/19 10:27:53;;;;;;;28.48;22.90;;;;;;;19.17;100.00;95884.66;5082937;28;20031;-74
2022/08/19 10:30:19;;;;;;;23.40;20.63;;;;;;;19.26;100.00;95888.66;5065418;28;20441;-74
2022/08/19 10:32:45;;;;;;;25.60;21.58;;;;;;;19.21;100.00;95875.16;5082808;28;20054;-74
2022/08/19 10:35:13;;;;;;;23.88;20.88;;;;;;;19.33;100.00;95874.44;5062700;28;20627;-72
2022/08/19 10:37:39;;;;;;;25.90;20.10;;;;;;;19.28;100.00;95889.25;5078679;28;20028;-73
2022/08/19 10:40:07;;;;;;;24.15;20.02;;;;;;;19.26;100.00;95887.84;5082835;28;20036;-72
2022/08/19 10:42:34;;;;;;;27.15;21.13;;;;;;;19.28;100.00;95889.25;5076606;28;20493;-74
2022/08/19 10:45:00;;;;;;;24.95;20.33;;;;;;;19.07;100.00;95895.81;5075785;28;20066;-72
2022/08/19 10:47:26;;;;;;;22.10;18.80;;;;;;;19.22;100.00;95886.66;5072842;28;20042;-74
2022/08/19 10:52:37;;;;;;;24.40;18.88;;;;;;;19.24;100.00;95900.56;5078458;28;20110;-71
2022/08/19 10:57:51;;;;;;;20.52;18.08;;;;;;;19.16;100.00;95907.00;5078592;28;20361;-73
2022/08/19 11:00:17;;;;;;;20.83;18.75;;;;;;;19.07;100.00;95909.13;5075989;28;20067;-72
2022/08/19 11:02:43;;;;;;;19.70;17.52;;;;;;;18.68;100.00;95914.78;5071147;28;20433;-73
2022/08/19 11:05:12;;;;;;;19.63;17.52;;;;;;;18.81;100.00;95914.72;5077559;28;20097;-74
2022/08/19 11:07:41;;;;;;;23.13;19.48;;;;;;;18.76;100.00;95917.22;5057248;28;20078;-71
2022/08/19 11:10:10;;;;;;;23.85;20.10;;;;;;;18.67;100.00;95929.16;5081447;28;20118;-72
2022/08/19 11:12:40;;;;;;;22.95;19.58;;;;;;;18.70;100.00;95916.22;5078122;28;20040;-73
2022/08/19 11:15:08;;;;;;;22.98;19.38;;;;;;;18.41;100.00;95922.19;5076903;28;20044;-73
2022/08/19 11:17:35;;;;;;;23.90;20.33;;;;;;;18.41;100.00;95925.69;5063770;28;20032;-73
2022/08/19 11:20:04;;;;;;;24.85;22.17;;;;;;;18.48;100.00;95929.09;5069816;28;20032;-71
2022/08/19 11:22:30;;;;;;;32.17;28.63;;;;;;;18.49;100.00;95937.91;5073566;28;20040;-73
2022/08/19 11:24:55;;;;;;;29.98;26.77;;;;;;;18.33;100.00;95934.72;5078899;28;20032;-73
2022/08/19 11:27:21;;;;;;;25.67;22.90;;;;;;;18.25;100.00;95939.50;5081092;28;20032;-72
2022/08/19 11:29:47;;;;;;;31.95;25.42;;;;;;;18.12;100.00;95935.88;5079313;28;20032;-73
2022/08/19 11:32:13;;;;;;;28.83;23.40;;;;;;;18.12;100.00;95941.22;5077367;28;20054;-72
2022/08/19 11:34:39;;;;;;;29.10;25.17;;;;;;;18.07;100.00;95942.88;5063580;28;20035;-73
2022/08/19 11:37:05;;;;;;;30.65;26.95;;;;;;;17.96;100.00;95947.03;5074899;28;20059;-72